SUL weather

Sui Airport
Sui, Balochistan, Pakistan

Public forecast

Using degrees Celsius for public forecast. Weather courtesy of forecast.io.

Closest aviation weather report (METAR) to Sui Airport

Closest report is Sukkur Airport, 59.1 nm (109.4 km) SSW. Retrieved 2020/07/02 22:00 UTC (30 minutes ago):

OPSK 022200Z 18006KT 4000 HZ NSC 34/24 Q0993 NOSIG

Closest aviation forecast (TAF) to Sui Airport

Closest forecast is Sukkur Airport, 59.1 nm (109.4 km) SSW. Retrieved 2020/07/02 18:03 UTC (4 hours ago):

TAF OPSK 021600Z 0218/0318 18008KT 4000 HZ FEW030 SCT100 TEMPO 0300/0304 18008KT 3000 HZ SCT030 FM030600 18008G18KT 5000 HZ FEW030 SCT100